createdAt,value
2022-08-30T00:01:28.175Z,98427.88
2022-08-30T00:03:56.607Z,98426.03
2022-08-30T00:06:25.365Z,98422.72
2022-08-30T00:08:53.051Z,98424.94
2022-08-30T00:11:28.889Z,98425.81
2022-08-30T00:13:58.133Z,98416.97
2022-08-30T00:16:26.653Z,98422.25
2022-08-30T00:18:54.642Z,98414.06
2022-08-30T00:21:22.598Z,98414.00
2022-08-30T00:23:49.826Z,98409.25
2022-08-30T00:26:16.800Z,98418.13
2022-08-30T00:28:43.938Z,98418.59
2022-08-30T00:31:11.070Z,98412.44
2022-08-30T00:33:42.336Z,98414.28
2022-08-30T00:36:09.334Z,98413.03
2022-08-30T00:38:36.379Z,98418.06
2022-08-30T00:41:03.655Z,98418.06
2022-08-30T00:43:36.880Z,98425.03
2022-08-30T00:46:08.298Z,98424.31
2022-08-30T00:48:38.138Z,98420.38
2022-08-30T00:51:11.582Z,98428.16
2022-08-30T00:53:45.232Z,98426.03
2022-08-30T00:56:12.931Z,98428.09
2022-08-30T00:58:45.474Z,98429.28
2022-08-30T01:01:13.241Z,98427.59
2022-08-30T01:03:43.249Z,98424.47
2022-08-30T01:06:11.383Z,98423.03
2022-08-30T01:08:39.136Z,98427.28
2022-08-30T01:11:06.952Z,98425.31
2022-08-30T01:13:35.256Z,98425.50
2022-08-30T01:16:03.190Z,98431.88
2022-08-30T01:18:32.108Z,98435.13
2022-08-30T01:21:10.321Z,98433.09
2022-08-30T01:23:43.392Z,98432.19
2022-08-30T01:26:11.925Z,98437.16
2022-08-30T01:28:40.896Z,98435.38
2022-08-30T01:31:08.604Z,98438.75
2022-08-30T01:33:38.360Z,98436.13
2022-08-30T01:36:12.293Z,98432.94
2022-08-30T01:38:59.694Z,98430.75
2022-08-30T01:41:30.985Z,98434.97
2022-08-30T01:44:04.487Z,98434.00
2022-08-30T01:46:37.700Z,98431.72
2022-08-30T01:49:10.508Z,98430.53
2022-08-30T01:51:38.544Z,98422.69
2022-08-30T01:54:06.133Z,98441.63
2022-08-30T01:56:33.412Z,98427.59
2022-08-30T01:59:03.141Z,98430.72
2022-08-30T02:01:33.311Z,98433.91
2022-08-30T02:04:00.566Z,98431.22
2022-08-30T02:06:27.997Z,98426.97
2022-08-30T02:08:55.350Z,98438.97
2022-08-30T02:11:22.340Z,98433.84
2022-08-30T02:13:50.121Z,98439.97
2022-08-30T02:16:22.854Z,98430.09
2022-08-30T02:18:52.680Z,98428.53
2022-08-30T02:21:20.761Z,98430.41
2022-08-30T02:23:47.928Z,98434.72
2022-08-30T02:26:15.632Z,98433.03
2022-08-30T02:28:49.885Z,98426.16
2022-08-30T02:31:20.821Z,98416.00
2022-08-30T02:33:51.356Z,98421.22
2022-08-30T02:36:20.755Z,98420.66
2022-08-30T02:38:48.859Z,98419.44
2022-08-30T02:41:16.100Z,98424.06
2022-08-30T02:43:43.321Z,98417.09
2022-08-30T02:46:10.360Z,98418.97
2022-08-30T02:48:37.395Z,98409.94
2022-08-30T02:51:09.635Z,98413.41
2022-08-30T02:53:40.846Z,98419.13
2022-08-30T02:56:08.453Z,98422.59
2022-08-30T02:58:36.185Z,98415.13
2022-08-30T03:01:04.003Z,98411.94
2022-08-30T03:03:31.555Z,98405.63
2022-08-30T03:05:58.567Z,98416.38
2022-08-30T03:08:25.634Z,98424.19
2022-08-30T03:10:52.716Z,98420.78
2022-08-30T03:13:27.447Z,98428.00
2022-08-30T03:15:54.719Z,98426.41
2022-08-30T03:18:23.270Z,98422.75
2022-08-30T03:20:54.549Z,98417.38
2022-08-30T03:23:24.085Z,98414.03
2022-08-30T03:25:51.983Z,98414.53
2022-08-30T03:28:19.016Z,98403.38
2022-08-30T03:30:46.031Z,98412.19
2022-08-30T03:33:13.098Z,98396.25
2022-08-30T03:35:45.493Z,98398.16
2022-08-30T03:38:12.428Z,98397.66
2022-08-30T03:40:39.987Z,98402.16
2022-08-30T03:43:07.672Z,98399.72
2022-08-30T03:45:35.340Z,98407.72
2022-08-30T03:48:02.950Z,98403.13
2022-08-30T03:50:31.075Z,98411.03
2022-08-30T03:53:01.383Z,98404.53
2022-08-30T03:55:29.902Z,98400.78
2022-08-30T03:57:57.672Z,98404.94
2022-08-30T04:00:25.130Z,98401.09
2022-08-30T04:02:52.107Z,98393.53
2022-08-30T04:05:19.359Z,98406.69
2022-08-30T04:07:46.467Z,98402.47
2022-08-30T04:10:13.470Z,98401.66
2022-08-30T04:12:40.425Z,98410.41
2022-08-30T04:15:10.421Z,98418.00
2022-08-30T04:17:37.429Z,98410.38
2022-08-30T04:20:05.138Z,98409.81
2022-08-30T04:22:32.071Z,98409.69
2022-08-30T04:24:58.995Z,98409.38
2022-08-30T04:27:26.081Z,98407.44
2022-08-30T04:29:54.097Z,98403.50
2022-08-30T04:32:23.288Z,98400.81
2022-08-30T04:34:50.325Z,98403.50
2022-08-30T04:37:17.245Z,98395.53
2022-08-30T04:39:46.086Z,98396.69
2022-08-30T04:42:13.077Z,98403.34
2022-08-30T04:44:40.106Z,98403.81
2022-08-30T04:47:10.084Z,98401.81
2022-08-30T04:49:37.182Z,98403.81
2022-08-30T04:52:06.302Z,98411.13
2022-08-30T04:54:33.233Z,98412.78
2022-08-30T04:57:00.880Z,98413.34
2022-08-30T04:59:28.768Z,98422.75
2022-08-30T05:01:55.796Z,98422.06
2022-08-30T05:04:22.926Z,98419.38
2022-08-30T05:06:50.145Z,98431.06
2022-08-30T05:09:17.470Z,98430.38
2022-08-30T05:11:45.983Z,98432.63
2022-08-30T05:14:13.696Z,98439.25
2022-08-30T05:16:41.751Z,98440.06
2022-08-30T05:19:08.959Z,98445.69
2022-08-30T05:21:36.223Z,98451.25
2022-08-30T05:24:03.461Z,98456.09
2022-08-30T05:26:33.337Z,98455.94
2022-08-30T05:29:00.646Z,98458.31
2022-08-30T05:31:31.751Z,98459.69
2022-08-30T05:33:59.664Z,98461.72
2022-08-30T05:36:29.616Z,98465.22
2022-08-30T05:38:56.944Z,98458.63
2022-08-30T05:41:26.494Z,98470.59
2022-08-30T05:44:00.380Z,98465.81
2022-08-30T05:49:06.838Z,98468.81
2022-08-30T05:51:36.581Z,98466.84
2022-08-30T05:54:13.007Z,98464.00
2022-08-30T05:56:41.991Z,98453.50
2022-08-30T05:59:09.396Z,98458.81
2022-08-30T06:01:40.817Z,98449.09
2022-08-30T06:04:10.792Z,98454.94
2022-08-30T06:06:41.384Z,98458.03
2022-08-30T06:09:10.438Z,98455.16
2022-08-30T06:11:37.934Z,98461.69
2022-08-30T06:14:05.809Z,98444.88
2022-08-30T06:16:33.434Z,98448.66
2022-08-30T06:19:00.607Z,98445.69
2022-08-30T06:21:34.478Z,98446.06
2022-08-30T06:24:05.060Z,98451.06
2022-08-30T06:26:36.644Z,98451.84
2022-08-30T06:29:03.659Z,98459.19
2022-08-30T06:31:30.802Z,98451.25
2022-08-30T06:33:57.919Z,98458.38
2022-08-30T06:36:25.693Z,98458.22
2022-08-30T06:38:56.993Z,98451.69
2022-08-30T06:41:28.087Z,98458.03
2022-08-30T06:43:56.718Z,98456.78
2022-08-30T06:46:28.195Z,98456.59
2022-08-30T06:48:56.860Z,98447.81
2022-08-30T06:51:31.601Z,98446.34
2022-08-30T06:53:59.603Z,98450.38
2022-08-30T06:56:27.631Z,98443.09
2022-08-30T06:58:54.845Z,98441.41
2022-08-30T07:01:25.877Z,98435.84
2022-08-30T07:03:53.965Z,98434.63
2022-08-30T07:06:22.208Z,98439.38
2022-08-30T07:08:55.952Z,98439.66
2022-08-30T07:11:36.807Z,98439.06
2022-08-30T07:14:05.078Z,98440.28
2022-08-30T07:16:33.359Z,98436.91
2022-08-30T07:19:01.862Z,98439.97
2022-08-30T07:21:43.788Z,98439.22
2022-08-30T07:24:12.455Z,98437.25
2022-08-30T07:26:46.783Z,98436.81
2022-08-30T07:29:14.106Z,98437.25
2022-08-30T07:31:41.159Z,98436.91
2022-08-30T07:34:09.626Z,98444.84
2022-08-30T07:36:38.771Z,98443.94
2022-08-30T07:39:07.268Z,98450.47
2022-08-30T07:41:38.791Z,98448.03
2022-08-30T07:44:08.317Z,98453.47
2022-08-30T07:46:36.110Z,98457.13
2022-08-30T07:49:04.148Z,98451.63
2022-08-30T07:51:32.955Z,98449.91
2022-08-30T07:54:00.572Z,98449.63
2022-08-30T07:56:27.882Z,98455.09
2022-08-30T07:58:55.424Z,98451.19
2022-08-30T08:01:23.972Z,98449.88
2022-08-30T08:03:51.878Z,98458.69
2022-08-30T08:06:21.581Z,98456.03
2022-08-30T08:08:49.560Z,98454.88
2022-08-30T08:11:28.448Z,98449.78
2022-08-30T08:13:58.800Z,98457.72
2022-08-30T08:16:29.266Z,98447.78
2022-08-30T08:18:57.015Z,98450.50
2022-08-30T08:21:25.683Z,98452.84
2022-08-30T08:23:53.129Z,98447.03
2022-08-30T08:26:21.553Z,98445.59
2022-08-30T08:28:48.579Z,98446.19
2022-08-30T08:31:31.438Z,98443.13
2022-08-30T08:34:03.042Z,98445.53
2022-08-30T08:36:31.546Z,98442.72
2022-08-30T08:38:59.501Z,98449.66
2022-08-30T08:41:51.031Z,98454.56
2022-08-30T08:44:41.226Z,98447.09
2022-08-30T08:47:21.942Z,98441.16
2022-08-30T08:49:54.362Z,98447.97
2022-08-30T08:52:53.418Z,98440.63
2022-08-30T08:55:23.632Z,98440.22
2022-08-30T08:57:52.390Z,98432.69
2022-08-30T09:00:19.726Z,98431.41
2022-08-30T09:02:55.800Z,98432.81
2022-08-30T09:05:27.921Z,98431.53
2022-08-30T09:08:09.982Z,98422.25
2022-08-30T09:10:50.058Z,98421.38
2022-08-30T09:13:22.945Z,98427.56
2022-08-30T09:15:54.822Z,98425.44
2022-08-30T09:18:51.432Z,98423.59
2022-08-30T09:21:25.307Z,98417.31
2022-08-30T09:24:01.870Z,98420.53
2022-08-30T09:26:37.420Z,98421.25
2022-08-30T09:29:06.005Z,98422.38
2022-08-30T09:31:47.597Z,98415.94
2022-08-30T09:34:23.935Z,98421.13
2022-08-30T09:36:53.982Z,98412.16
2022-08-30T09:39:30.256Z,98420.81
2022-08-30T09:42:25.354Z,98404.31
2022-08-30T09:45:10.184Z,98400.03
2022-08-30T09:47:42.469Z,98397.31
2022-08-30T09:50:21.271Z,98396.50
2022-08-30T09:53:23.444Z,98387.31
2022-08-30T09:56:10.216Z,98389.19
2022-08-30T09:59:05.428Z,98389.22
2022-08-30T10:01:55.007Z,98393.00
2022-08-30T10:04:59.013Z,98398.69
2022-08-30T10:07:44.532Z,98381.59
2022-08-30T10:10:45.876Z,98377.56
2022-08-30T10:13:34.289Z,98381.59
2022-08-30T10:16:32.870Z,98372.94
2022-08-30T10:19:57.375Z,98373.53
2022-08-30T10:23:18.784Z,98368.09
2022-08-30T10:25:50.907Z,98361.50
2022-08-30T10:28:43.711Z,98364.41
2022-08-30T10:31:46.321Z,98355.03
2022-08-30T10:34:40.048Z,98346.34
2022-08-30T10:37:46.668Z,98345.91
2022-08-30T10:40:51.077Z,98342.91
2022-08-30T10:43:41.448Z,98349.03
2022-08-30T10:46:20.110Z,98345.38
2022-08-30T10:48:48.604Z,98339.94
2022-08-30T10:51:40.639Z,98345.00
2022-08-30T10:57:05.522Z,98340.88
2022-08-30T10:59:34.806Z,98336.78
2022-08-30T11:02:35.988Z,98345.72
2022-08-30T11:05:24.052Z,98338.81
2022-08-30T11:08:30.022Z,98329.84
2022-08-30T11:11:29.762Z,98340.22
2022-08-30T11:14:05.435Z,98336.56
2022-08-30T11:16:40.746Z,98339.03
2022-08-30T11:19:22.589Z,98330.41
2022-08-30T11:21:51.058Z,98335.44
2022-08-30T11:24:24.063Z,98327.44
2022-08-30T11:26:57.153Z,98328.44
2022-08-30T11:29:27.551Z,98327.75
2022-08-30T11:32:01.022Z,98321.94
2022-08-30T11:34:48.999Z,98323.56
2022-08-30T11:37:44.558Z,98328.84
2022-08-30T11:40:20.680Z,98324.25
2022-08-30T11:42:50.941Z,98328.53
2022-08-30T11:45:25.697Z,98317.84
2022-08-30T11:48:05.887Z,98331.69
2022-08-30T11:50:48.505Z,98326.13
2022-08-30T11:53:45.522Z,98333.28
2022-08-30T11:56:34.144Z,98323.47
2022-08-30T11:59:11.442Z,98320.50
2022-08-30T12:01:49.737Z,98313.25
2022-08-30T12:04:19.630Z,98317.50
2022-08-30T12:07:04.378Z,98308.38
2022-08-30T12:09:51.400Z,98316.16
2022-08-30T12:12:39.348Z,98305.88
2022-08-30T12:15:06.586Z,98318.47
2022-08-30T12:18:16.593Z,98309.44
2022-08-30T12:20:48.501Z,98311.59
2022-08-30T12:23:47.918Z,98311.78
2022-08-30T12:26:25.081Z,98314.59
2022-08-30T12:29:22.407Z,98313.25
2022-08-30T12:31:58.736Z,98312.06
2022-08-30T12:34:53.973Z,98305.75
2022-08-30T12:37:36.347Z,98306.22
2022-08-30T12:40:14.847Z,98306.00
2022-08-30T12:43:00.532Z,98301.66
2022-08-30T12:45:50.765Z,98299.06
2022-08-30T12:48:20.007Z,98306.63
2022-08-30T12:50:55.559Z,98297.97
2022-08-30T12:53:31.796Z,98298.94
2022-08-30T12:56:09.757Z,98300.88
2022-08-30T12:58:50.639Z,98289.47
2022-08-30T13:01:29.715Z,98292.91
2022-08-30T13:04:25.718Z,98291.13
2022-08-30T13:06:58.592Z,98294.91
2022-08-30T13:09:38.996Z,98282.78
2022-08-30T13:12:20.897Z,98281.16
2022-08-30T13:14:49.556Z,98278.44
2022-08-30T13:17:19.348Z,98284.75
2022-08-30T13:20:12.405Z,98276.63
2022-08-30T13:22:43.363Z,98268.13
2022-08-30T13:25:11.712Z,98271.88
2022-08-30T13:27:40.013Z,98275.94
2022-08-30T13:30:14.634Z,98266.72
2022-08-30T13:32:42.473Z,98263.34
2022-08-30T13:35:11.544Z,98255.81
2022-08-30T13:37:47.404Z,98252.69
2022-08-30T13:40:20.843Z,98261.81
2022-08-30T13:42:48.530Z,98260.84
2022-08-30T13:48:06.587Z,98260.50
2022-08-30T13:50:33.802Z,98255.75
2022-08-30T13:53:00.845Z,98251.28
2022-08-30T13:55:28.490Z,98245.72
2022-08-30T13:57:57.351Z,98245.25
2022-08-30T14:00:26.466Z,98238.84
2022-08-30T14:02:57.583Z,98240.34
2022-08-30T14:05:48.135Z,98234.28
2022-08-30T14:11:12.495Z,98233.69
2022-08-30T14:14:14.773Z,98239.25
2022-08-30T14:16:28.846Z,98232.50
2022-08-30T14:18:56.533Z,98229.31
2022-08-30T14:21:24.370Z,98223.63
2022-08-30T14:23:57.631Z,98231.72
2022-08-30T14:26:32.216Z,98227.84
2022-08-30T14:29:03.544Z,98222.56
2022-08-30T14:31:32.633Z,98215.44
2022-08-30T14:34:03.330Z,98213.88
2022-08-30T14:36:31.797Z,98216.91
2022-08-30T14:38:58.997Z,98217.16
2022-08-30T14:41:26.163Z,98209.16
2022-08-30T14:43:53.271Z,98215.91
2022-08-30T14:46:22.053Z,98209.25
2022-08-30T14:48:50.371Z,98213.94
2022-08-30T14:51:20.720Z,98206.13
2022-08-30T14:53:50.565Z,98210.47
2022-08-30T14:56:20.101Z,98205.16
2022-08-30T14:58:53.037Z,98204.59
2022-08-30T15:01:22.352Z,98206.31
2022-08-30T15:03:49.372Z,98213.13
2022-08-30T15:06:18.593Z,98205.44
2022-08-30T15:08:48.309Z,98201.06
2022-08-30T15:11:18.665Z,98200.94
2022-08-30T15:13:46.072Z,98200.44
2022-08-30T15:16:24.847Z,98203.69
2022-08-30T15:18:52.383Z,98195.78
2022-08-30T15:21:33.816Z,98187.69
2022-08-30T15:24:04.567Z,98191.81
2022-08-30T15:26:31.827Z,98193.16
2022-08-30T15:28:59.493Z,98192.84
2022-08-30T15:31:28.820Z,98186.72
2022-08-30T15:33:56.616Z,98182.38
2022-08-30T15:36:25.454Z,98182.31
2022-08-30T15:38:55.465Z,98185.03
2022-08-30T15:41:24.061Z,98181.91
2022-08-30T15:43:52.932Z,98178.88
2022-08-30T15:46:30.754Z,98177.53
2022-08-30T15:49:14.741Z,98181.53
2022-08-30T15:51:45.836Z,98178.94
2022-08-30T15:54:15.660Z,98173.09
2022-08-30T15:56:44.560Z,98171.44
2022-08-30T15:59:15.202Z,98165.09
2022-08-30T16:01:43.756Z,98170.06
2022-08-30T16:04:11.345Z,98172.47
2022-08-30T16:06:39.740Z,98175.63
2022-08-30T16:09:10.100Z,98173.22
2022-08-30T16:11:38.211Z,98172.34
2022-08-30T16:14:06.577Z,98172.19
2022-08-30T16:16:37.727Z,98171.38
2022-08-30T16:19:07.338Z,98171.53
2022-08-30T16:21:39.816Z,98165.81
2022-08-30T16:24:10.562Z,98166.53
2022-08-30T16:26:42.821Z,98158.06
2022-08-30T16:29:10.725Z,98163.09
2022-08-30T16:31:38.376Z,98156.78
2022-08-30T16:34:06.849Z,98162.22
2022-08-30T16:36:35.929Z,98159.69
2022-08-30T16:39:08.405Z,98153.34
2022-08-30T16:41:37.487Z,98162.06
2022-08-30T16:44:05.724Z,98157.69
2022-08-30T16:46:34.357Z,98151.16
2022-08-30T16:49:02.261Z,98146.75
2022-08-30T16:51:32.821Z,98148.13
2022-08-30T16:54:07.861Z,98153.47
2022-08-30T16:56:37.319Z,98150.41
2022-08-30T16:59:10.911Z,98142.78
2022-08-30T17:01:39.210Z,98147.22
2022-08-30T17:04:08.137Z,98154.28
2022-08-30T17:06:36.075Z,98148.97
2022-08-30T17:09:05.251Z,98153.09
2022-08-30T17:11:33.835Z,98150.16
2022-08-30T17:14:01.556Z,98151.25
2022-08-30T17:16:30.034Z,98153.91
2022-08-30T17:18:59.916Z,98159.22
2022-08-30T17:21:29.339Z,98162.19
2022-08-30T17:24:02.306Z,98156.06
2022-08-30T17:26:32.840Z,98164.59
2022-08-30T17:29:00.847Z,98168.88
2022-08-30T17:31:30.411Z,98166.75
2022-08-30T17:34:03.364Z,98176.16
2022-08-30T17:36:35.507Z,98186.72
2022-08-30T17:39:09.580Z,98184.84
2022-08-30T17:41:45.221Z,98198.88
2022-08-30T17:44:28.420Z,98194.91
2022-08-30T17:46:57.126Z,98194.88
2022-08-30T17:49:26.816Z,98196.00
2022-08-30T17:51:56.863Z,98203.22
2022-08-30T17:54:26.629Z,98198.81
2022-08-30T17:56:55.063Z,98211.00
2022-08-30T17:59:25.118Z,98204.78
2022-08-30T18:01:55.019Z,98206.16
2022-08-30T18:04:25.211Z,98211.97
2022-08-30T18:06:53.203Z,98217.00
2022-08-30T18:09:20.733Z,98217.19
2022-08-30T18:11:48.591Z,98223.94
2022-08-30T18:14:17.560Z,98215.31
2022-08-30T18:16:50.000Z,98217.78
2022-08-30T18:19:20.785Z,98216.41
2022-08-30T18:21:48.229Z,98218.84
2022-08-30T18:24:16.710Z,98230.13
2022-08-30T18:26:43.841Z,98224.69
2022-08-30T18:29:11.324Z,98222.34
2022-08-30T18:31:38.703Z,98222.56
2022-08-30T18:34:06.985Z,98222.84
2022-08-30T18:36:40.095Z,98230.31
2022-08-30T18:39:09.127Z,98219.06
2022-08-30T18:41:42.282Z,98227.69
2022-08-30T18:44:26.699Z,98240.09
2022-08-30T18:46:56.392Z,98241.75
2022-08-30T18:49:42.156Z,98234.34
2022-08-30T18:52:10.276Z,98239.03
2022-08-30T18:54:48.493Z,98234.97
2022-08-30T18:57:20.114Z,98242.84
2022-08-30T18:59:47.975Z,98241.38
2022-08-30T19:02:16.541Z,98242.75
2022-08-30T19:04:45.725Z,98243.09
2022-08-30T19:07:16.858Z,98247.22
2022-08-30T19:09:45.518Z,98246.88
2022-08-30T19:12:12.866Z,98254.31
2022-08-30T19:14:40.376Z,98254.75
2022-08-30T19:17:08.546Z,98261.69
2022-08-30T19:19:48.858Z,98259.41
2022-08-30T19:22:19.964Z,98260.22
2022-08-30T19:24:49.782Z,98265.78
2022-08-30T19:27:21.310Z,98266.53
2022-08-30T19:29:53.661Z,98257.13
2022-08-30T19:32:21.888Z,98265.31
2022-08-30T19:34:49.353Z,98259.22
2022-08-30T19:37:18.532Z,98263.41
2022-08-30T19:39:46.697Z,98267.25
2022-08-30T19:42:14.314Z,98265.53
2022-08-30T19:44:41.352Z,98262.91
2022-08-30T19:47:08.431Z,98267.03
2022-08-30T19:49:36.007Z,98273.78
2022-08-30T19:52:03.664Z,98266.44
2022-08-30T19:54:30.702Z,98265.94
2022-08-30T19:56:57.738Z,98263.69
2022-08-30T19:59:27.531Z,98263.38
2022-08-30T20:01:56.889Z,98269.13
2022-08-30T20:04:24.025Z,98261.88
2022-08-30T20:06:51.294Z,98266.13
2022-08-30T20:09:18.973Z,98262.63
2022-08-30T20:11:46.035Z,98265.50
2022-08-30T20:14:19.721Z,98267.38
2022-08-30T20:16:47.508Z,98268.59
2022-08-30T20:19:16.008Z,98266.22
2022-08-30T20:21:46.065Z,98269.44
2022-08-30T20:24:14.765Z,98265.84
2022-08-30T20:26:42.304Z,98268.41
2022-08-30T20:29:09.637Z,98269.97
2022-08-30T20:31:36.957Z,98270.50
2022-08-30T20:34:04.967Z,98270.81
2022-08-30T20:36:33.630Z,98268.41
2022-08-30T20:39:01.940Z,98265.50
2022-08-30T20:41:31.025Z,98268.72
2022-08-30T20:43:58.310Z,98266.38
2022-08-30T20:46:25.607Z,98260.41
2022-08-30T20:48:53.095Z,98262.03
2022-08-30T20:51:27.472Z,98257.47
2022-08-30T20:53:55.612Z,98245.81
2022-08-30T20:56:23.233Z,98262.56
2022-08-30T20:58:50.609Z,98258.28
2022-08-30T21:01:18.217Z,98259.94
2022-08-30T21:03:47.638Z,98261.56
2022-08-30T21:06:16.687Z,98260.50
2022-08-30T21:08:43.982Z,98252.91
2022-08-30T21:11:11.097Z,98258.84
2022-08-30T21:13:38.878Z,98257.22
2022-08-30T21:16:07.427Z,98260.47
2022-08-30T21:18:36.766Z,98261.53
2022-08-30T21:21:22.535Z,98256.06
2022-08-30T21:23:50.282Z,98259.66
2022-08-30T21:26:18.839Z,98250.69
2022-08-30T21:28:51.584Z,98255.03
2022-08-30T21:31:22.460Z,98262.91
2022-08-30T21:33:52.373Z,98256.97
2022-08-30T21:36:39.645Z,98263.72
2022-08-30T21:39:07.766Z,98258.03
2022-08-30T21:41:37.379Z,98265.63
2022-08-30T21:44:16.246Z,98260.25
2022-08-30T21:46:44.624Z,98263.72
2022-08-30T21:49:13.959Z,98256.41
2022-08-30T21:51:44.252Z,98259.47
2022-08-30T21:54:13.468Z,98262.72
2022-08-30T21:56:43.574Z,98268.13
2022-08-30T21:59:12.516Z,98277.03
2022-08-30T22:01:41.150Z,98271.00
2022-08-30T22:04:10.092Z,98273.19
2022-08-30T22:06:43.186Z,98288.34
2022-08-30T22:09:15.957Z,98276.88
2022-08-30T22:11:44.648Z,98275.47
2022-08-30T22:14:12.860Z,98282.28
2022-08-30T22:16:40.715Z,98286.66
2022-08-30T22:19:11.619Z,98281.06
2022-08-30T22:21:41.826Z,98282.94
2022-08-30T22:24:09.866Z,98287.28
2022-08-30T22:26:37.431Z,98285.38
2022-08-30T22:29:06.813Z,98294.50
2022-08-30T22:31:34.764Z,98294.28
2022-08-30T22:34:02.231Z,98290.28
2022-08-30T22:36:32.593Z,98286.50
2022-08-30T22:39:02.019Z,98292.44
2022-08-30T22:41:31.713Z,98300.47
2022-08-30T22:43:58.965Z,98297.94
2022-08-30T22:46:34.004Z,98298.81
2022-08-30T22:49:07.956Z,98303.41
2022-08-30T22:51:36.422Z,98293.47
2022-08-30T22:54:06.027Z,98300.63
2022-08-30T22:56:35.832Z,98300.84
2022-08-30T22:59:03.472Z,98298.59
2022-08-30T23:01:35.165Z,98310.72
2022-08-30T23:04:03.012Z,98305.66
2022-08-30T23:06:30.566Z,98303.47
2022-08-30T23:08:58.037Z,98305.34
2022-08-30T23:11:25.674Z,98309.69
2022-08-30T23:13:53.803Z,98305.41
2022-08-30T23:16:22.028Z,98303.75
2022-08-30T23:18:49.377Z,98305.91
2022-08-30T23:21:22.207Z,98311.25
2022-08-30T23:24:13.532Z,98305.00
2022-08-30T23:27:01.153Z,98309.75
2022-08-30T23:29:49.100Z,98315.13
2022-08-30T23:32:34.864Z,98306.81
2022-08-30T23:35:20.904Z,98308.47
2022-08-30T23:38:12.503Z,98305.22
2022-08-30T23:40:58.460Z,98313.75
2022-08-30T23:43:44.325Z,98301.50
2022-08-30T23:46:29.852Z,98290.97
2022-08-30T23:49:15.835Z,98289.28
2022-08-30T23:52:01.131Z,98291.97
2022-08-30T23:54:47.097Z,98302.34
2022-08-30T23:57:32.875Z,98293.66
